createdAt,value
2023-04-18T00:02:20.430Z,88.90
2023-04-18T00:04:49.857Z,88.90
2023-04-18T00:07:19.933Z,88.90
2023-04-18T00:09:46.673Z,88.90
2023-04-18T00:12:13.676Z,89.20
2023-04-18T00:14:41.263Z,89.20
2023-04-18T00:17:09.977Z,88.90
2023-04-18T00:19:37.836Z,89.00
2023-04-18T00:22:10.451Z,89.10
2023-04-18T00:24:37.070Z,89.00
2023-04-18T00:27:03.687Z,89.10
2023-04-18T00:29:31.855Z,89.40
2023-04-18T00:31:58.764Z,89.40
2023-04-18T00:34:25.422Z,89.40
2023-04-18T00:36:52.345Z,89.30
2023-04-18T00:39:19.005Z,89.40
2023-04-18T00:41:45.859Z,89.50
2023-04-18T00:44:12.687Z,89.60
2023-04-18T00:46:39.846Z,89.60
2023-04-18T00:49:06.619Z,89.40
2023-04-18T00:51:35.099Z,89.50
2023-04-18T00:54:03.442Z,89.50
2023-04-18T00:56:32.534Z,89.50
2023-04-18T00:58:59.311Z,89.50
2023-04-18T01:01:26.404Z,89.50
2023-04-18T01:03:53.760Z,89.60
2023-04-18T01:06:20.685Z,89.60
2023-04-18T01:08:47.725Z,89.60
2023-04-18T01:11:16.352Z,89.60
2023-04-18T01:13:43.322Z,89.40
2023-04-18T01:16:10.025Z,89.30
2023-04-18T01:18:38.314Z,89.20
2023-04-18T01:21:08.252Z,89.20
2023-04-18T01:23:35.433Z,89.30
2023-04-18T01:26:05.191Z,89.40
2023-04-18T01:28:36.199Z,89.50
2023-04-18T01:31:06.472Z,89.60
2023-04-18T01:33:33.318Z,89.70
2023-04-18T01:36:00.156Z,89.70
2023-04-18T01:38:33.904Z,89.70
2023-04-18T01:41:01.041Z,89.70
2023-04-18T01:43:27.726Z,89.70
2023-04-18T01:45:56.900Z,89.40
2023-04-18T01:48:23.821Z,89.30
2023-04-18T01:50:51.682Z,89.10
2023-04-18T01:53:19.402Z,89.20
2023-04-18T01:55:47.566Z,89.40
2023-04-18T01:58:15.931Z,89.50
2023-04-18T02:00:43.149Z,89.40
2023-04-18T02:03:09.911Z,89.30
2023-04-18T02:05:40.686Z,89.10
2023-04-18T02:08:09.006Z,89.20
2023-04-18T02:10:35.929Z,89.20
2023-04-18T02:13:02.689Z,89.20
2023-04-18T02:15:30.417Z,89.30
2023-04-18T02:18:00.597Z,89.30
2023-04-18T02:20:31.644Z,89.20
2023-04-18T02:23:03.522Z,89.10
2023-04-18T02:25:30.575Z,89.00
2023-04-18T02:27:57.731Z,89.10
2023-04-18T02:30:27.271Z,89.00
2023-04-18T02:32:59.346Z,89.20
2023-04-18T02:35:27.822Z,89.20
2023-04-18T02:38:02.525Z,89.20
2023-04-18T02:40:30.394Z,89.10
2023-04-18T02:42:58.151Z,89.10
2023-04-18T02:45:26.272Z,89.00
2023-04-18T02:47:55.935Z,88.60
2023-04-18T02:50:23.680Z,88.90
2023-04-18T02:52:50.793Z,89.10
2023-04-18T02:55:17.489Z,89.10
2023-04-18T02:57:44.354Z,89.20
2023-04-18T03:00:19.181Z,89.10
2023-04-18T03:02:46.847Z,89.50
2023-04-18T03:05:13.546Z,89.40
2023-04-18T03:07:40.394Z,89.40
2023-04-18T03:10:07.415Z,89.50
2023-04-18T03:12:43.915Z,89.60
2023-04-18T03:17:46.399Z,89.40
2023-04-18T03:20:16.083Z,89.50
2023-04-18T03:22:42.702Z,89.60
2023-04-18T03:25:09.668Z,89.60
2023-04-18T03:27:39.265Z,89.60
2023-04-18T03:30:06.444Z,89.60
2023-04-18T03:32:38.199Z,89.70
2023-04-18T03:35:05.812Z,89.90
2023-04-18T03:37:32.528Z,89.80
2023-04-18T03:39:59.419Z,89.90
2023-04-18T03:42:26.229Z,89.90
2023-04-18T03:44:52.897Z,89.70
2023-04-18T03:47:19.961Z,89.40
2023-04-18T03:49:47.291Z,89.60
2023-04-18T03:52:14.421Z,89.60
2023-04-18T03:57:23.819Z,89.70
2023-04-18T03:59:54.163Z,89.80
2023-04-18T04:02:21.403Z,90.10
2023-04-18T04:04:49.654Z,90.00
2023-04-18T04:07:16.607Z,90.00
2023-04-18T04:09:43.412Z,89.90
2023-04-18T04:12:11.343Z,90.00
2023-04-18T04:14:38.595Z,89.80
2023-04-18T04:17:05.909Z,89.90
2023-04-18T04:19:32.799Z,90.00
2023-04-18T04:21:59.406Z,90.00
2023-04-18T04:24:26.531Z,90.00
2023-04-18T04:26:53.343Z,89.90
2023-04-18T04:29:21.647Z,90.10
2023-04-18T04:31:49.259Z,90.20
2023-04-18T04:34:16.950Z,90.50
2023-04-18T04:36:44.492Z,90.50
2023-04-18T04:39:11.702Z,90.20
2023-04-18T04:41:41.478Z,90.30
2023-04-18T04:44:09.544Z,90.20
2023-04-18T04:46:41.037Z,90.00
2023-04-18T04:49:08.013Z,90.30
2023-04-18T04:51:40.100Z,89.90
2023-04-18T04:54:06.891Z,90.00
2023-04-18T04:56:33.588Z,90.00
2023-04-18T04:59:01.115Z,89.90
2023-04-18T05:01:27.881Z,89.70
2023-04-18T05:03:54.928Z,89.50
2023-04-18T05:06:23.258Z,89.50
2023-04-18T05:08:58.437Z,89.50
2023-04-18T05:11:25.356Z,89.50
2023-04-18T05:13:55.081Z,89.30
2023-04-18T05:16:22.008Z,89.30
2023-04-18T05:18:49.563Z,89.10
2023-04-18T05:21:16.400Z,88.80
2023-04-18T05:23:43.068Z,88.50
2023-04-18T05:26:10.807Z,88.50
2023-04-18T05:28:38.099Z,88.30
2023-04-18T05:33:40.228Z,87.60
2023-04-18T05:36:07.778Z,87.70
2023-04-18T05:38:35.241Z,87.60
2023-04-18T05:41:02.997Z,87.70
2023-04-18T05:46:09.003Z,87.30
2023-04-18T05:48:47.422Z,87.10
2023-04-18T05:59:21.025Z,85.60
2023-04-18T06:09:47.914Z,86.20
2023-04-18T06:25:38.066Z,84.30
2023-04-18T06:28:05.420Z,84.40
2023-04-18T06:38:32.573Z,83.50
2023-04-18T06:43:36.560Z,81.80
2023-04-18T06:46:05.584Z,82.10
2023-04-18T06:48:33.183Z,82.60
2023-04-18T06:50:59.890Z,81.70
2023-04-18T06:53:26.887Z,81.10
2023-04-18T06:55:53.617Z,81.20
2023-04-18T06:58:21.480Z,81.30
2023-04-18T07:00:55.174Z,80.60
2023-04-18T07:03:22.310Z,80.90
2023-04-18T07:05:50.664Z,80.60
2023-04-18T07:08:17.543Z,80.60
2023-04-18T07:10:46.752Z,80.20
2023-04-18T07:13:15.308Z,79.80
2023-04-18T07:15:43.496Z,79.60
2023-04-18T07:18:16.056Z,79.00
2023-04-18T07:20:45.052Z,78.60
2023-04-18T07:23:13.836Z,79.00
2023-04-18T07:25:41.202Z,78.10
2023-04-18T07:28:07.793Z,76.90
2023-04-18T07:30:36.401Z,76.20
2023-04-18T07:33:03.467Z,75.80
2023-04-18T07:38:13.055Z,76.20
2023-04-18T07:40:39.821Z,76.50
2023-04-18T07:45:48.891Z,75.20
2023-04-18T07:48:15.735Z,75.20
2023-04-18T07:50:43.005Z,74.90
2023-04-18T07:53:09.658Z,75.10
2023-04-18T07:55:37.393Z,75.40
2023-04-18T07:58:04.751Z,76.20
2023-04-18T08:03:17.590Z,76.30
2023-04-18T08:05:46.091Z,75.30
2023-04-18T08:08:13.108Z,75.80
2023-04-18T08:10:45.559Z,75.60
2023-04-18T08:13:16.908Z,75.60
2023-04-18T08:15:43.736Z,74.60
2023-04-18T08:23:37.381Z,74.10
2023-04-18T08:26:05.876Z,73.90
2023-04-18T08:28:33.119Z,73.30
2023-04-18T08:31:00.104Z,72.80
2023-04-18T08:33:27.255Z,72.90
2023-04-18T08:35:55.581Z,73.80
2023-04-18T08:38:24.712Z,73.40
2023-04-18T08:40:51.707Z,72.70
2023-04-18T08:43:19.695Z,73.10
2023-04-18T08:45:46.864Z,72.70
2023-04-18T08:48:15.454Z,73.80
2023-04-18T08:53:27.019Z,71.90
2023-04-18T08:56:00.469Z,70.50
2023-04-18T08:58:27.670Z,70.40
2023-04-18T09:01:02.176Z,70.90
2023-04-18T09:03:43.115Z,70.90
2023-04-18T09:06:17.438Z,71.50
2023-04-18T09:08:59.211Z,71.50
2023-04-18T09:17:02.454Z,71.90
2023-04-18T09:19:34.067Z,71.70
2023-04-18T09:22:04.509Z,71.80
2023-04-18T09:24:32.369Z,72.00
2023-04-18T09:27:01.154Z,71.50
2023-04-18T09:29:50.396Z,71.80
2023-04-18T09:32:27.983Z,71.30
2023-04-18T09:34:58.762Z,71.60
2023-04-18T09:37:28.851Z,71.20
2023-04-18T09:39:56.088Z,71.50
2023-04-18T09:42:23.144Z,71.70
2023-04-18T09:45:08.785Z,71.80
2023-04-18T09:47:41.389Z,71.80
2023-04-18T09:50:11.436Z,72.70
2023-04-18T09:52:40.728Z,72.60
2023-04-18T09:55:13.132Z,72.80
2023-04-18T09:57:46.420Z,72.70
2023-04-18T10:00:22.055Z,72.80
2023-04-18T10:03:05.746Z,73.80
2023-04-18T10:05:35.740Z,73.20
2023-04-18T10:08:03.707Z,72.40
2023-04-18T10:10:30.965Z,71.20
2023-04-18T10:12:59.600Z,71.60
2023-04-18T10:15:34.555Z,72.00
2023-04-18T10:18:05.641Z,71.70
2023-04-18T10:20:33.891Z,71.70
2023-04-18T10:23:20.716Z,71.30
2023-04-18T10:25:50.010Z,70.70
2023-04-18T10:28:18.083Z,70.90
2023-04-18T10:30:45.699Z,71.00
2023-04-18T10:33:31.165Z,70.20
2023-04-18T10:36:27.045Z,70.30
2023-04-18T10:38:54.548Z,70.00
2023-04-18T10:46:51.650Z,69.40
2023-04-18T10:51:59.598Z,69.60
2023-04-18T10:54:30.342Z,69.50
2023-04-18T11:02:35.662Z,69.60
2023-04-18T11:05:26.860Z,69.20
2023-04-18T11:07:54.025Z,68.30
2023-04-18T11:13:06.913Z,69.10
2023-04-18T11:21:12.418Z,69.70
2023-04-18T11:23:48.419Z,67.70
2023-04-18T11:26:17.757Z,67.80
2023-04-18T11:28:46.526Z,67.10
2023-04-18T11:31:16.282Z,68.10
2023-04-18T11:33:47.728Z,68.00
2023-04-18T11:44:26.809Z,70.00
2023-04-18T11:46:55.170Z,69.00
2023-04-18T11:49:32.065Z,69.30
2023-04-18T11:52:04.419Z,68.90
2023-04-18T11:54:38.981Z,69.30
2023-04-18T11:57:10.770Z,69.10
2023-04-18T11:59:43.074Z,68.90
2023-04-18T12:02:16.738Z,68.80
2023-04-18T12:04:54.026Z,68.70
2023-04-18T12:07:38.404Z,69.00
2023-04-18T12:10:06.461Z,68.60
2023-04-18T12:12:36.389Z,68.50
2023-04-18T12:15:06.673Z,68.20
2023-04-18T12:17:35.035Z,68.60
2023-04-18T12:20:03.653Z,68.80
2023-04-18T12:22:42.402Z,68.50
2023-04-18T12:25:10.179Z,68.30
2023-04-18T12:27:53.369Z,68.90
2023-04-18T12:30:23.084Z,68.60
2023-04-18T12:35:27.148Z,68.50
2023-04-18T12:37:55.687Z,68.80
2023-04-18T12:40:24.188Z,68.70
2023-04-18T12:42:51.441Z,68.90
2023-04-18T12:45:21.105Z,69.00
2023-04-18T12:47:49.309Z,68.90
2023-04-18T12:50:18.816Z,69.30
2023-04-18T12:52:48.261Z,70.00
2023-04-18T12:55:24.489Z,69.70
2023-04-18T12:57:56.089Z,69.40
2023-04-18T13:00:26.261Z,69.50
2023-04-18T13:02:57.216Z,70.20
2023-04-18T13:05:25.412Z,69.60
2023-04-18T13:07:58.732Z,70.00
2023-04-18T13:10:35.083Z,70.80
2023-04-18T13:13:04.368Z,69.10
2023-04-18T13:15:32.946Z,68.40
2023-04-18T13:18:05.084Z,68.80
2023-04-18T13:20:37.227Z,68.90
2023-04-18T13:23:05.186Z,69.00
2023-04-18T13:25:39.871Z,69.20
2023-04-18T13:28:07.580Z,68.70
2023-04-18T13:33:25.422Z,68.70
2023-04-18T13:35:52.335Z,67.60
2023-04-18T13:38:19.164Z,67.50
2023-04-18T13:40:47.367Z,68.20
2023-04-18T13:43:15.832Z,68.20
2023-04-18T13:51:16.702Z,68.20
2023-04-18T13:53:43.530Z,67.90
2023-04-18T13:56:10.426Z,68.40
2023-04-18T13:58:38.227Z,67.40
2023-04-18T14:01:06.971Z,68.20
2023-04-18T14:03:41.274Z,67.80
2023-04-18T14:06:13.473Z,68.00
2023-04-18T14:08:43.163Z,68.30
2023-04-18T14:11:10.399Z,68.80
2023-04-18T14:13:37.512Z,68.90
2023-04-18T14:16:04.679Z,69.00
2023-04-18T14:18:31.576Z,68.90
2023-04-18T14:20:58.589Z,69.00
2023-04-18T14:23:25.969Z,68.80
2023-04-18T14:25:53.952Z,68.50
2023-04-18T14:28:26.446Z,68.30
2023-04-18T14:31:02.759Z,69.20
2023-04-18T14:33:30.092Z,68.20
2023-04-18T14:35:59.286Z,68.50
2023-04-18T14:38:29.112Z,68.80
2023-04-18T14:40:57.255Z,68.10
2023-04-18T14:43:24.557Z,67.00
2023-04-18T14:45:55.484Z,68.10
2023-04-18T14:48:28.360Z,68.20
2023-04-18T14:51:00.867Z,68.40
2023-04-18T14:53:28.256Z,67.80
2023-04-18T14:55:56.472Z,68.20
2023-04-18T14:58:23.249Z,67.40
2023-04-18T15:00:53.886Z,67.30
2023-04-18T15:03:21.206Z,68.30
2023-04-18T15:05:53.195Z,67.30
2023-04-18T15:08:21.654Z,68.20
2023-04-18T15:10:48.991Z,68.00
2023-04-18T15:13:23.441Z,67.30
2023-04-18T15:15:54.398Z,67.80
2023-04-18T15:18:21.827Z,67.90
2023-04-18T15:20:52.889Z,67.70
2023-04-18T15:23:20.016Z,68.10
2023-04-18T15:25:49.371Z,68.20
2023-04-18T15:28:18.716Z,67.90
2023-04-18T15:30:46.199Z,68.60
2023-04-18T15:33:20.803Z,68.20
2023-04-18T15:35:48.770Z,68.20
2023-04-18T15:38:18.167Z,68.10
2023-04-18T15:40:45.514Z,68.60
2023-04-18T15:43:13.733Z,68.30
2023-04-18T15:45:41.623Z,68.40
2023-04-18T15:48:10.263Z,68.30
2023-04-18T15:50:37.599Z,68.90
2023-04-18T15:53:04.895Z,68.60
2023-04-18T15:55:32.602Z,68.70
2023-04-18T15:57:59.508Z,68.10
2023-04-18T16:00:26.406Z,68.50
2023-04-18T16:02:53.530Z,68.80
2023-04-18T16:05:22.096Z,69.40
2023-04-18T16:07:50.444Z,68.80
2023-04-18T16:10:17.117Z,69.80
2023-04-18T16:12:44.177Z,69.60
2023-04-18T16:15:12.525Z,69.90
2023-04-18T16:17:39.339Z,70.10
2023-04-18T16:20:15.636Z,68.90
2023-04-18T16:22:42.570Z,69.10
2023-04-18T16:25:09.361Z,69.90
2023-04-18T16:27:37.072Z,69.90
2023-04-18T16:30:05.366Z,70.60
2023-04-18T16:32:35.304Z,72.30
2023-04-18T16:35:02.123Z,73.60
2023-04-18T16:37:28.989Z,74.50
2023-04-18T16:39:58.462Z,75.30
2023-04-18T16:42:25.440Z,75.70
2023-04-18T16:44:53.803Z,75.90
2023-04-18T16:47:23.808Z,76.00
2023-04-18T16:49:51.401Z,76.30
2023-04-18T16:52:18.665Z,76.40
2023-04-18T16:54:46.784Z,77.30
2023-04-18T16:57:14.075Z,77.10
2023-04-18T16:59:42.349Z,76.90
2023-04-18T17:02:09.227Z,77.30
2023-04-18T17:04:37.450Z,76.00
2023-04-18T17:07:04.115Z,76.60
2023-04-18T17:09:31.567Z,77.00
2023-04-18T17:12:04.733Z,77.10
2023-04-18T17:14:34.487Z,76.90
2023-04-18T17:17:01.192Z,77.20
2023-04-18T17:19:28.259Z,77.30
2023-04-18T17:21:55.020Z,77.20
2023-04-18T17:24:22.852Z,77.00
2023-04-18T17:26:52.641Z,76.60
2023-04-18T17:29:20.362Z,77.20
2023-04-18T17:31:48.719Z,77.40
2023-04-18T17:34:15.766Z,77.00
2023-04-18T17:36:42.988Z,77.30
2023-04-18T17:39:09.840Z,77.40
2023-04-18T17:41:41.543Z,77.60
2023-04-18T17:44:10.588Z,77.40
2023-04-18T17:46:37.489Z,77.50
2023-04-18T17:49:04.941Z,77.60
2023-04-18T17:51:31.884Z,77.40
2023-04-18T17:54:01.817Z,77.10
2023-04-18T17:56:31.436Z,77.30
2023-04-18T17:58:58.280Z,77.30
2023-04-18T18:01:28.164Z,77.70
2023-04-18T18:03:55.694Z,77.50
2023-04-18T18:06:22.677Z,77.40
2023-04-18T18:08:50.359Z,77.50
2023-04-18T18:11:17.278Z,77.60
2023-04-18T18:13:46.286Z,78.00
2023-04-18T18:16:13.541Z,77.90
2023-04-18T18:18:40.847Z,78.10
2023-04-18T18:21:09.054Z,78.10
2023-04-18T18:23:36.912Z,78.10
2023-04-18T18:26:06.542Z,78.10
2023-04-18T18:28:42.593Z,78.20
2023-04-18T18:31:10.552Z,78.00
2023-04-18T18:33:37.347Z,78.30
2023-04-18T18:36:07.199Z,78.80
2023-04-18T18:38:33.955Z,78.50
2023-04-18T18:41:03.793Z,78.30
2023-04-18T18:43:32.152Z,78.40
2023-04-18T18:46:02.817Z,78.30
